Time;durP1;ratioP1;P1;durP2;ratioP2;P2;SDS_P1;SDS_P2;PMS_P1;PMS_P2;Temp;Humidity;BMP_temperature;BMP_pressure;BME280_temperature;BME280_humidity;BME280_pressure;Samples;Min_cycle;Max_cycle;Signal;HPM_P1;HPM_P2
2022/11/27 00:00:46;;;;;;;12.60;3.55;;;5.40;99.90;;;;;;5059852;28;20122;-86
2022/11/27 00:03:12;;;;;;;12.27;3.60;;;5.50;99.90;;;;;;5059580;28;20082;-86
2022/11/27 00:05:39;;;;;;;11.48;4.55;;;5.40;99.90;;;;;;5075981;28;20040;-86
2022/11/27 00:08:06;;;;;;;15.93;4.38;;;6.40;99.90;;;;;;5075885;28;20036;-86
2022/11/27 00:10:32;;;;;;;16.92;4.40;;;5.80;99.90;;;;;;5075932;28;20043;-86
2022/11/27 00:12:59;;;;;;;14.43;4.50;;;5.40;99.90;;;;;;5059716;28;20079;-86
2022/11/27 00:15:26;;;;;;;9.40;3.75;;;5.70;99.90;;;;;;5075858;28;20040;-86
2022/11/27 00:17:52;;;;;;;11.77;3.88;;;5.30;99.90;;;;;;5059640;28;20534;-86
2022/11/27 00:20:19;;;;;;;11.23;4.35;;;5.30;99.90;;;;;;5059220;28;20456;-86
2022/11/27 00:22:46;;;;;;;11.32;4.18;;;5.30;99.90;;;;;;5075966;28;20040;-86
2022/11/27 00:25:12;;;;;;;13.02;4.07;;;6.00;99.90;;;;;;5075756;28;20058;-85
2022/11/27 00:27:39;;;;;;;13.98;4.03;;;5.30;99.90;;;;;;5095135;28;20170;-85
2022/11/27 00:30:06;;;;;;;11.63;3.65;;;5.30;99.90;;;;;;5079882;28;20629;-86
2022/11/27 00:32:33;;;;;;;14.77;4.00;;;5.30;99.90;;;;;;5063211;28;20039;-86
2022/11/27 00:35:00;;;;;;;11.80;3.97;;;5.30;99.90;;;;;;5062941;28;20036;-86
2022/11/27 00:37:26;;;;;;;12.73;4.25;;;5.70;99.90;;;;;;5062999;28;20492;-85
2022/11/27 00:39:53;;;;;;;12.77;3.75;;;6.00;99.90;;;;;;5079829;28;20039;-85
2022/11/27 00:42:20;;;;;;;14.10;3.78;;;5.50;99.90;;;;;;5095807;28;20044;-86
2022/11/27 00:44:46;;;;;;;8.85;3.38;;;5.20;99.90;;;;;;5062837;28;20047;-86
2022/11/27 00:47:13;;;;;;;12.35;3.97;;;5.40;99.90;;;;;;5079007;28;20074;-85
2022/11/27 00:49:40;;;;;;;13.45;4.30;;;5.20;99.90;;;;;;5095696;28;20048;-86
2022/11/27 00:52:06;;;;;;;11.40;4.28;;;5.40;99.90;;;;;;5079505;28;20074;-86
2022/11/27 00:54:33;;;;;;;13.35;4.00;;;5.10;99.90;;;;;;5095365;28;20105;-86
2022/11/27 00:57:00;;;;;;;12.15;4.65;;;5.10;99.90;;;;;;5095971;28;20052;-85
2022/11/27 00:59:26;;;;;;;15.98;4.03;;;5.30;99.90;;;;;;5062568;28;20043;-85
2022/11/27 01:01:53;;;;;;;12.57;4.22;;;5.10;99.90;;;;;;5095825;28;20054;-85
2022/11/27 01:04:20;;;;;;;13.65;3.78;;;5.10;99.90;;;;;;5079034;28;20040;-85
2022/11/27 01:06:46;;;;;;;14.82;4.47;;;5.00;99.90;;;;;;5062343;28;20036;-86
2022/11/27 01:09:14;;;;;;;15.43;4.18;;;5.10;99.90;;;;;;5095694;28;20384;-85
2022/11/27 01:11:41;;;;;;;15.55;4.47;;;5.00;99.90;;;;;;5095247;28;20098;-85
2022/11/27 01:14:15;;;;;;;13.18;3.85;;;5.00;99.90;;;;;;5112182;28;20104;-86
2022/11/27 01:16:42;;;;;;;12.23;3.42;;;5.00;99.90;;;;;;5095338;28;20532;-86
2022/11/27 01:19:10;;;;;;;10.80;3.75;;;5.00;99.90;;;;;;5062591;28;20037;-86
2022/11/27 01:21:37;;;;;;;7.22;3.65;;;5.00;99.90;;;;;;5095061;28;20043;-86
2022/11/27 01:24:04;;;;;;;13.60;4.63;;;5.50;99.90;;;;;;5095511;28;20399;-85
2022/11/27 01:26:31;;;;;;;13.07;4.13;;;5.00;99.90;;;;;;5078261;28;20450;-85
2022/11/27 01:28:58;;;;;;;13.75;3.80;;;5.80;99.90;;;;;;5062018;28;20040;-86
2022/11/27 01:31:29;;;;;;;11.95;3.88;;;4.90;99.90;;;;;;5094885;28;20496;-86
2022/11/27 01:34:07;;;;;;;11.52;3.40;;;5.50;99.90;;;;;;5094965;28;20032;-85
2022/11/27 01:36:34;;;;;;;14.05;4.22;;;5.00;99.90;;;;;;5094947;28;20143;-85
2022/11/27 01:39:02;;;;;;;11.05;4.00;;;5.10;99.90;;;;;;5111876;28;20123;-86
2022/11/27 01:41:32;;;;;;;13.35;4.13;;;4.80;99.90;;;;;;5094733;28;20036;-85
2022/11/27 01:44:24;;;;;;;13.60;3.80;;;5.10;99.90;;;;;;5094995;28;20040;-85
2022/11/27 01:47:04;;;;;;;9.93;4.30;;;4.80;99.90;;;;;;5084062;28;20044;-85
2022/11/27 01:49:41;;;;;;;16.05;4.32;;;4.80;99.90;;;;;;5094473;28;20079;-84
2022/11/27 01:52:12;;;;;;;16.00;4.13;;;4.80;99.90;;;;;;5094827;28;20040;-85
2022/11/27 01:54:47;;;;;;;10.75;3.70;;;5.30;99.90;;;;;;5111008;28;20040;-85
2022/11/27 01:57:41;;;;;;;9.70;4.13;;;4.70;99.90;;;;;;5095088;28;20135;-86
2022/11/27 02:00:11;;;;;;;8.88;3.83;;;4.80;99.90;;;;;;5108861;28;20059;-86
2022/11/27 02:02:39;;;;;;;18.92;4.65;;;4.70;99.90;;;;;;5094590;28;20064;-85
2022/11/27 02:05:07;;;;;;;15.93;3.97;;;4.70;99.90;;;;;;5094406;28;20047;-85
2022/11/27 02:07:34;;;;;;;18.48;5.82;;;4.70;99.90;;;;;;5094117;28;20036;-85
2022/11/27 02:10:02;;;;;;;15.45;4.25;;;5.00;99.90;;;;;;5094627;28;20032;-85
2022/11/27 02:12:55;;;;;;;11.82;4.00;;;5.00;99.90;;;;;;5094428;28;20028;-85
2022/11/27 02:15:37;;;;;;;14.88;5.18;;;4.70;99.90;;;;;;5094409;28;20032;-85
2022/11/27 02:18:25;;;;;;;10.40;3.65;;;4.60;99.90;;;;;;5093793;28;20040;-86
2022/11/27 02:21:04;;;;;;;16.70;4.68;;;4.70;99.90;;;;;;5093890;28;20039;-85
2022/11/27 02:23:52;;;;;;;10.60;3.85;;;4.70;99.90;;;;;;5110677;28;20046;-86
2022/11/27 02:26:22;;;;;;;12.82;4.28;;;4.60;99.90;;;;;;5110791;28;20109;-85
2022/11/27 02:29:02;;;;;;;12.82;3.78;;;4.60;99.90;;;;;;5110161;28;20115;-85
2022/11/27 02:31:40;;;;;;;14.30;3.88;;;4.60;99.90;;;;;;5110586;28;20044;-86
2022/11/27 02:34:34;;;;;;;6.57;3.65;;;4.60;99.90;;;;;;5094087;28;20044;-85
2022/11/27 02:37:35;;;;;;;15.45;4.35;;;4.50;99.90;;;;;;5094346;28;20131;-85
2022/11/27 02:40:13;;;;;;;11.40;3.90;;;4.50;99.90;;;;;;5090195;28;20115;-86
2022/11/27 02:42:48;;;;;;;11.55;3.85;;;4.50;99.90;;;;;;5073524;28;20040;-85
2022/11/27 02:45:34;;;;;;;13.77;4.40;;;4.50;99.90;;;;;;5073599;28;20127;-85
2022/11/27 02:48:03;;;;;;;14.63;4.28;;;4.50;99.90;;;;;;5089776;28;20036;-86
2022/11/27 02:50:32;;;;;;;12.30;4.60;;;4.50;99.90;;;;;;5062735;28;20111;-85
2022/11/27 02:53:03;;;;;;;13.73;3.85;;;4.40;99.90;;;;;;5076841;28;20545;-86
2022/11/27 02:55:33;;;;;;;14.60;4.18;;;4.60;99.90;;;;;;5093627;28;20101;-86
2022/11/27 02:58:03;;;;;;;14.35;3.63;;;4.60;99.90;;;;;;5093408;28;20044;-86
2022/11/27 03:00:33;;;;;;;10.15;3.92;;;5.10;99.90;;;;;;5110011;28;20047;-86
2022/11/27 03:03:04;;;;;;;9.73;4.05;;;4.40;99.90;;;;;;5073439;28;20036;-85
2022/11/27 03:05:37;;;;;;;12.02;4.05;;;4.40;99.90;;;;;;5073396;28;20044;-85
2022/11/27 03:08:17;;;;;;;9.88;3.40;;;4.50;99.90;;;;;;5073185;28;20448;-85
2022/11/27 03:11:05;;;;;;;8.02;3.42;;;4.40;99.90;;;;;;5072960;28;20496;-85
2022/11/27 03:13:37;;;;;;;9.68;3.25;;;4.30;99.90;;;;;;5073159;28;20071;-85
2022/11/27 03:16:15;;;;;;;8.00;3.60;;;4.30;99.90;;;;;;5072982;28;20400;-85
2022/11/27 03:19:11;;;;;;;9.43;3.53;;;4.30;99.90;;;;;;5089334;28;20077;-85
2022/11/27 03:21:46;;;;;;;11.60;3.45;;;4.30;99.90;;;;;;5080596;28;20458;-86
2022/11/27 03:24:13;;;;;;;11.63;3.50;;;4.40;99.90;;;;;;5079749;28;20055;-86
2022/11/27 03:26:40;;;;;;;10.30;3.90;;;4.40;99.90;;;;;;5109534;28;20097;-85
2022/11/27 03:29:12;;;;;;;9.68;3.50;;;4.30;99.90;;;;;;5092839;28;20147;-85
2022/11/27 03:31:40;;;;;;;12.68;3.45;;;4.40;99.90;;;;;;5093095;28;20050;-86
2022/11/27 03:34:07;;;;;;;10.30;3.60;;;5.00;99.90;;;;;;5109384;28;20040;-86
2022/11/27 03:36:33;;;;;;;12.23;3.70;;;4.30;99.90;;;;;;5059902;28;20435;-85
2022/11/27 03:39:00;;;;;;;10.60;3.03;;;4.40;99.90;;;;;;5059974;28;20040;-85
2022/11/27 03:42:02;;;;;;;11.50;3.20;;;5.10;99.90;;;;;;5093300;28;20036;-85
2022/11/27 03:44:35;;;;;;;11.85;3.20;;;4.40;99.90;;;;;;5087241;28;20048;-86
2022/11/27 03:47:23;;;;;;;9.65;3.13;;;4.40;99.90;;;;;;5092674;28;20616;-85
2022/11/27 03:50:00;;;;;;;10.15;3.35;;;4.40;99.90;;;;;;5109501;28;20044;-85
2022/11/27 03:52:54;;;;;;;14.55;4.40;;;4.50;99.90;;;;;;5093174;28;20036;-85
2022/11/27 03:55:56;;;;;;;13.68;3.03;;;4.50;99.90;;;;;;5100428;28;20111;-86
2022/11/27 03:58:33;;;;;;;14.68;2.90;;;4.50;99.90;;;;;;5063961;28;20044;-85
2022/11/27 04:01:01;;;;;;;16.00;3.55;;;4.50;99.90;;;;;;5072778;28;20094;-86
2022/11/27 04:03:29;;;;;;;6.13;2.63;;;4.60;99.90;;;;;;5076706;28;20093;-85
2022/11/27 04:05:56;;;;;;;8.27;2.97;;;4.60;99.90;;;;;;5059892;28;20032;-86
2022/11/27 04:08:23;;;;;;;10.23;3.35;;;5.00;99.90;;;;;;5076519;28;20072;-86
2022/11/27 04:10:50;;;;;;;14.65;3.85;;;4.60;99.90;;;;;;5076831;28;20037;-84
2022/11/27 04:13:17;;;;;;;9.10;3.13;;;4.60;99.90;;;;;;5076437;28;20037;-86
2022/11/27 04:15:43;;;;;;;15.52;2.80;;;4.70;99.90;;;;;;5076406;28;20083;-86
2022/11/27 04:18:10;;;;;;;11.20;3.22;;;5.30;99.90;;;;;;5043427;28;20067;-86
2022/11/27 04:20:37;;;;;;;10.52;3.17;;;4.80;99.90;;;;;;5059849;28;20052;-85
2022/11/27 04:23:04;;;;;;;7.30;2.90;;;4.70;99.90;;;;;;5076254;28;20045;-85
2022/11/27 04:25:30;;;;;;;7.43;2.90;;;4.70;99.90;;;;;;5043173;28;20049;-86
2022/11/27 04:27:57;;;;;;;8.45;2.85;;;4.90;99.90;;;;;;5076057;28;20401;-86
2022/11/27 04:30:24;;;;;;;8.73;2.95;;;4.80;99.90;;;;;;5059587;28;20037;-85
2022/11/27 04:32:50;;;;;;;6.95;2.92;;;4.70;99.90;;;;;;5076237;28;20037;-86
2022/11/27 04:35:17;;;;;;;15.07;3.55;;;4.70;99.90;;;;;;5043477;28;20033;-86
2022/11/27 04:37:44;;;;;;;8.50;2.85;;;4.70;99.90;;;;;;5043347;28;20048;-86
2022/11/27 04:40:11;;;;;;;12.95;2.78;;;4.80;99.90;;;;;;5043082;28;20041;-86
2022/11/27 04:42:38;;;;;;;8.98;2.40;;;4.70;99.90;;;;;;5076123;28;20044;-86
2022/11/27 04:45:05;;;;;;;7.32;3.00;;;5.00;99.90;;;;;;5059555;28;20041;-85
2022/11/27 04:47:32;;;;;;;7.22;2.55;;;4.80;99.90;;;;;;5042949;28;20123;-86
2022/11/27 04:49:58;;;;;;;7.55;2.55;;;4.80;99.90;;;;;;5058973;28;20136;-85
2022/11/27 04:52:25;;;;;;;11.30;3.10;;;4.80;99.90;;;;;;5043160;28;20501;-86
2022/11/27 04:54:52;;;;;;;5.45;2.45;;;4.90;99.90;;;;;;5070796;28;20496;-86
2022/11/27 04:57:18;;;;;;;11.60;2.75;;;4.80;99.90;;;;;;5095740;28;20059;-86
2022/11/27 04:59:45;;;;;;;7.93;2.80;;;5.00;99.90;;;;;;5062836;28;20076;-86
2022/11/27 05:02:12;;;;;;;6.60;2.92;;;4.80;99.90;;;;;;5062198;28;20507;-86
2022/11/27 05:04:38;;;;;;;7.75;2.70;;;4.80;99.90;;;;;;5095510;28;20093;-86
2022/11/27 05:07:06;;;;;;;6.10;2.67;;;5.20;99.90;;;;;;5078644;28;20035;-86
2022/11/27 05:09:32;;;;;;;7.82;2.63;;;5.60;99.90;;;;;;5096010;28;20047;-86
2022/11/27 05:11:59;;;;;;;5.93;2.70;;;4.80;99.90;;;;;;5078632;28;20040;-85
2022/11/27 05:14:28;;;;;;;13.30;2.90;;;4.80;99.90;;;;;;5090812;28;20058;-86
2022/11/27 05:16:57;;;;;;;10.00;2.90;;;5.00;99.90;;;;;;5079608;28;20067;-86
2022/11/27 05:19:26;;;;;;;13.25;2.78;;;4.80;99.90;;;;;;5095358;28;20127;-85
2022/11/27 05:21:53;;;;;;;8.65;2.53;;;4.90;99.90;;;;;;5095453;28;20184;-85
2022/11/27 05:24:22;;;;;;;7.50;2.63;;;5.20;99.90;;;;;;5078989;28;20059;-86
2022/11/27 05:26:48;;;;;;;10.20;2.90;;;4.80;99.90;;;;;;5112264;28;20047;-85
2022/11/27 05:29:16;;;;;;;13.23;3.72;;;4.80;99.90;;;;;;5078694;28;20040;-85
2022/11/27 05:31:42;;;;;;;7.95;2.90;;;4.80;99.90;;;;;;5095432;28;20035;-86
2022/11/27 05:34:09;;;;;;;8.25;2.85;;;4.80;99.90;;;;;;5078605;28;20415;-85
2022/11/27 05:36:36;;;;;;;12.18;2.75;;;4.90;99.90;;;;;;5095340;28;20119;-86
2022/11/27 05:39:05;;;;;;;6.65;2.78;;;5.10;99.90;;;;;;5094878;28;20140;-86
2022/11/27 05:41:33;;;;;;;9.70;3.00;;;5.00;99.90;;;;;;5078563;28;20040;-86
2022/11/27 05:44:01;;;;;;;6.28;2.40;;;4.70;99.90;;;;;;5095031;28;20435;-85
2022/11/27 05:46:27;;;;;;;5.10;2.45;;;4.70;99.90;;;;;;5061870;28;20123;-86
2022/11/27 05:48:54;;;;;;;12.57;2.63;;;4.80;99.90;;;;;;5078106;28;20138;-85
2022/11/27 05:51:21;;;;;;;6.93;2.75;;;5.10;99.90;;;;;;5094855;28;20036;-86
2022/11/27 05:53:47;;;;;;;9.65;2.60;;;5.20;99.90;;;;;;5061667;28;20052;-86
2022/11/27 05:56:16;;;;;;;6.78;3.00;;;4.70;99.90;;;;;;5077846;28;20044;-86
2022/11/27 05:58:46;;;;;;;10.85;3.05;;;5.00;99.90;;;;;;5077626;28;20073;-86
2022/11/27 06:01:15;;;;;;;5.78;2.20;;;4.60;99.90;;;;;;5094403;28;20496;-85
2022/11/27 06:03:41;;;;;;;9.00;2.40;;;4.70;99.90;;;;;;5094643;28;20105;-85
2022/11/27 06:06:14;;;;;;;9.65;3.40;;;4.60;99.90;;;;;;5094357;28;20036;-85
2022/11/27 06:08:41;;;;;;;9.23;2.63;;;4.60;99.90;;;;;;5094333;28;20054;-85
2022/11/27 06:11:10;;;;;;;7.05;2.55;;;4.60;99.90;;;;;;5110581;28;20051;-85
2022/11/27 06:13:38;;;;;;;9.82;3.03;;;4.90;99.90;;;;;;5094340;28;20078;-86
2022/11/27 06:16:12;;;;;;;5.43;2.25;;;4.60;99.90;;;;;;5077769;28;20047;-86
2022/11/27 06:18:39;;;;;;;5.97;2.53;;;5.10;99.90;;;;;;5110746;28;20040;-85
2022/11/27 06:21:08;;;;;;;7.90;2.72;;;4.50;99.90;;;;;;5060715;28;20050;-85
2022/11/27 06:23:35;;;;;;;10.27;3.05;;;4.50;99.90;;;;;;5093638;28;20487;-86
2022/11/27 06:26:15;;;;;;;6.20;2.72;;;4.60;99.90;;;;;;5093932;28;20264;-85
2022/11/27 06:28:42;;;;;;;7.57;2.60;;;4.50;99.90;;;;;;5094218;28;20133;-86
2022/11/27 06:31:10;;;;;;;7.22;2.45;;;4.50;99.90;;;;;;5093855;28;20040;-85
2022/11/27 06:33:37;;;;;;;9.88;2.63;;;4.80;99.90;;;;;;5093972;28;20043;-86
2022/11/27 06:36:05;;;;;;;4.80;2.20;;;5.20;99.90;;;;;;5077296;28;20031;-86
2022/11/27 06:38:33;;;;;;;8.57;2.72;;;4.50;99.90;;;;;;5094159;28;20496;-86
2022/11/27 06:41:09;;;;;;;4.97;2.47;;;4.50;99.90;;;;;;5093883;28;20134;-86
2022/11/27 06:43:36;;;;;;;11.38;2.67;;;4.60;99.90;;;;;;5093765;28;20080;-86
2022/11/27 06:46:04;;;;;;;8.15;2.47;;;5.50;99.90;;;;;;5077005;28;20503;-85
2022/11/27 06:48:32;;;;;;;7.10;2.20;;;4.50;99.90;;;;;;5093447;28;20036;-86
2022/11/27 06:51:04;;;;;;;10.20;2.90;;;4.70;99.90;;;;;;5077574;28;20046;-86
2022/11/27 06:53:33;;;;;;;12.93;2.78;;;4.50;99.90;;;;;;5093285;28;20036;-85
2022/11/27 06:56:09;;;;;;;10.52;2.58;;;4.50;99.90;;;;;;5093327;28;20051;-85
2022/11/27 06:58:36;;;;;;;13.18;2.60;;;4.50;99.90;;;;;;5093423;28;20117;-86
2022/11/27 07:01:09;;;;;;;7.28;2.40;;;4.50;99.90;;;;;;5093385;28;20043;-86
2022/11/27 07:03:36;;;;;;;6.28;2.70;;;4.50;99.90;;;;;;5092990;28;20074;-85
2022/11/27 07:06:05;;;;;;;12.18;3.13;;;4.50;99.90;;;;;;5076388;28;20067;-86
2022/11/27 07:08:33;;;;;;;8.90;2.67;;;4.50;99.90;;;;;;5093105;28;20032;-86
2022/11/27 07:11:09;;;;;;;8.68;3.05;;;4.50;99.90;;;;;;5093115;28;20044;-85
2022/11/27 07:13:36;;;;;;;8.13;2.85;;;4.50;99.90;;;;;;5109454;28;20094;-85
2022/11/27 07:16:05;;;;;;;6.13;2.63;;;4.50;99.90;;;;;;5062818;28;20067;-85
2022/11/27 07:18:47;;;;;;;8.88;2.92;;;4.40;99.90;;;;;;5093129;28;20031;-86
2022/11/27 07:21:14;;;;;;;9.52;2.65;;;4.40;99.90;;;;;;5109514;28;20063;-83
2022/11/27 07:23:41;;;;;;;5.25;2.47;;;4.40;99.90;;;;;;5092989;28;20047;-86
2022/11/27 07:26:16;;;;;;;7.13;2.80;;;4.60;99.90;;;;;;5076826;28;20048;-86
2022/11/27 07:28:43;;;;;;;;;;;5.00;99.90;;;;;;5094170;28;20110;-86
2022/11/27 07:31:12;;;;;;;7.10;2.78;;;4.40;99.90;;;;;;5089752;28;19920;-86
2022/11/27 07:33:38;;;;;;;9.25;2.60;;;4.50;99.90;;;;;;5093044;28;20028;-87
2022/11/27 07:36:10;;;;;;;8.73;2.83;;;4.90;99.90;;;;;;5097184;28;20039;-87
2022/11/27 07:38:37;;;;;;;5.85;2.47;;;4.40;99.90;;;;;;5113634;28;20050;-87
2022/11/27 07:41:05;;;;;;;7.53;2.65;;;4.40;99.90;;;;;;5119926;28;20127;-86
2022/11/27 07:43:33;;;;;;;5.57;2.78;;;4.40;99.90;;;;;;5123772;28;20122;-87
2022/11/27 07:46:11;;;;;;;6.13;2.65;;;4.50;99.90;;;;;;5127713;28;20044;-87
2022/11/27 07:48:38;;;;;;;9.43;2.42;;;4.40;99.90;;;;;;5093237;28;20062;-86
2022/11/27 07:51:06;;;;;;;8.65;2.47;;;4.40;99.90;;;;;;5076782;28;20442;-86
2022/11/27 07:53:36;;;;;;;7.05;2.42;;;4.50;99.90;;;;;;5093530;28;20126;-87
2022/11/27 07:56:04;;;;;;;6.38;2.72;;;4.50;99.90;;;;;;5096222;28;20143;-87
2022/11/27 07:58:31;;;;;;;5.15;2.40;;;4.50;99.90;;;;;;5093317;28;20851;-87
2022/11/27 08:00:58;;;;;;;9.25;2.58;;;4.60;99.90;;;;;;5109658;28;20488;-87
2022/11/27 08:03:25;;;;;;;6.63;2.63;;;5.00;99.90;;;;;;5081591;28;20051;-86
2022/11/27 08:05:52;;;;;;;6.15;2.67;;;4.60;99.90;;;;;;5082727;28;20047;-86
2022/11/27 08:08:18;;;;;;;9.05;2.97;;;4.60;99.90;;;;;;5096641;28;20032;-87
2022/11/27 08:10:45;;;;;;;7.25;2.58;;;4.60;99.90;;;;;;5113383;28;20066;-88
2022/11/27 08:13:12;;;;;;;6.05;2.58;;;4.60;99.90;;;;;;5110567;28;20039;-85
2022/11/27 08:15:38;;;;;;;7.85;3.22;;;4.60;99.90;;;;;;5075962;28;20514;-86
2022/11/27 08:18:05;;;;;;;8.55;2.95;;;4.70;99.90;;;;;;5075761;28;20043;-87
2022/11/27 08:20:32;;;;;;;9.43;2.65;;;4.70;99.90;;;;;;5090430;28;20488;-85
2022/11/27 08:22:58;;;;;;;13.68;3.45;;;4.70;99.90;;;;;;5092230;28;20040;-85
2022/11/27 08:25:25;;;;;;;6.75;2.55;;;5.50;99.90;;;;;;5092082;28;20047;-84
2022/11/27 08:27:52;;;;;;;7.88;2.47;;;4.70;99.90;;;;;;5087983;28;20067;-85
2022/11/27 08:30:21;;;;;;;7.47;2.45;;;4.80;99.90;;;;;;5072379;28;20051;-85
2022/11/27 08:32:48;;;;;;;5.32;2.30;;;4.80;99.90;;;;;;5077881;28;20136;-83
2022/11/27 08:35:14;;;;;;;8.70;3.47;;;4.80;99.90;;;;;;5092307;28;20068;-84
2022/11/27 08:37:41;;;;;;;7.22;3.17;;;4.90;99.90;;;;;;5079151;28;20041;-84
2022/11/27 08:40:08;;;;;;;9.90;2.88;;;5.10;99.90;;;;;;5084641;28;20127;-84
2022/11/27 08:42:35;;;;;;;7.55;2.67;;;5.00;99.90;;;;;;5076131;28;20032;-84
2022/11/27 08:45:02;;;;;;;7.88;2.83;;;5.00;99.90;;;;;;5092722;28;20062;-84
2022/11/27 08:47:29;;;;;;;6.43;2.78;;;5.00;99.90;;;;;;5077039;28;20031;-84
2022/11/27 08:49:55;;;;;;;11.00;2.90;;;5.10;99.90;;;;;;5079611;28;20044;-84
2022/11/27 08:52:22;;;;;;;6.90;2.42;;;5.10;99.90;;;;;;5079217;28;20040;-84
2022/11/27 08:54:58;;;;;;;9.85;2.78;;;5.10;99.90;;;;;;5078967;28;20044;-84
2022/11/27 08:57:25;;;;;;;;;;;5.20;99.90;;;;;;5080910;28;20109;-84
2022/11/27 08:59:51;;;;;;;10.20;3.08;;;5.20;99.90;;;;;;5095799;28;19915;-84
2022/11/27 09:02:18;;;;;;;8.20;2.60;;;5.20;99.90;;;;;;5075532;28;20052;-84
2022/11/27 09:04:45;;;;;;;7.65;2.75;;;5.20;99.90;;;;;;5083724;28;20100;-84
2022/11/27 09:07:15;;;;;;;7.07;2.53;;;5.30;99.90;;;;;;5078713;28;20032;-84
2022/11/27 09:09:42;;;;;;;8.38;2.80;;;5.20;99.90;;;;;;5095477;28;20036;-85
2022/11/27 09:12:09;;;;;;;7.45;2.55;;;5.20;99.90;;;;;;5095391;28;20047;-84
2022/11/27 09:14:36;;;;;;;8.88;3.22;;;5.20;99.90;;;;;;5062154;28;20036;-84
2022/11/27 09:17:02;;;;;;;6.05;2.58;;;5.30;99.90;;;;;;5079327;28;20047;-84
2022/11/27 09:19:29;;;;;;;6.20;2.92;;;5.30;99.90;;;;;;5079217;28;20039;-84
2022/11/27 09:21:56;;;;;;;5.28;2.63;;;5.40;99.90;;;;;;5062018;28;20044;-85
2022/11/27 09:24:23;;;;;;;8.38;2.92;;;5.30;99.90;;;;;;5063323;28;20056;-84
2022/11/27 09:26:50;;;;;;;6.10;2.53;;;5.30;99.90;;;;;;5073263;28;20036;-85
2022/11/27 09:29:17;;;;;;;9.10;3.30;;;5.30;99.90;;;;;;5078451;28;20042;-85
2022/11/27 09:31:43;;;;;;;7.38;2.90;;;5.40;99.90;;;;;;5076239;28;20032;-84
2022/11/27 09:34:10;;;;;;;7.22;3.03;;;5.40;99.90;;;;;;5060359;28;20040;-84
2022/11/27 09:36:37;;;;;;;8.15;2.67;;;5.40;99.90;;;;;;5097699;28;20089;-84
2022/11/27 09:39:03;;;;;;;9.32;2.75;;;5.70;99.90;;;;;;5111388;28;20044;-85
2022/11/27 09:41:39;;;;;;;8.25;2.72;;;5.50;99.90;;;;;;5061464;28;20062;-84
2022/11/27 09:44:06;;;;;;;;;;;5.40;99.90;;;;;;5094629;28;20512;-85
2022/11/27 09:46:39;;;;;;;7.85;2.65;;;5.50;99.90;;;;;;5095340;28;19966;-84
2022/11/27 09:49:17;;;;;;;8.73;2.83;;;5.50;99.90;;;;;;5108539;28;20036;-84
2022/11/27 09:52:05;;;;;;;6.30;2.83;;;5.50;99.90;;;;;;5111231;28;20044;-84
2022/11/27 09:54:37;;;;;;;9.77;3.00;;;5.50;99.90;;;;;;5094982;28;20399;-85
2022/11/27 09:57:05;;;;;;;7.40;2.58;;;5.50;99.90;;;;;;5096006;28;20092;-85
2022/11/27 09:59:49;;;;;;;6.47;2.80;;;5.70;99.90;;;;;;5076775;28;20039;-84
2022/11/27 10:02:22;;;;;;;6.53;2.67;;;5.50;99.90;;;;;;5094742;28;20062;-85
2022/11/27 10:04:49;;;;;;;8.07;2.88;;;5.60;99.90;;;;;;5094369;28;20036;-85
2022/11/27 10:07:21;;;;;;;8.13;3.00;;;5.50;99.90;;;;;;5094419;28;20039;-85
2022/11/27 10:10:06;;;;;;;5.20;2.45;;;5.60;99.90;;;;;;5076101;28;20480;-85
2022/11/27 10:12:39;;;;;;;7.07;2.85;;;5.60;99.90;;;;;;5094404;28;20040;-85
2022/11/27 10:15:23;;;;;;;7.25;2.70;;;5.50;99.90;;;;;;5093956;28;20047;-85
2022/11/27 10:18:06;;;;;;;7.47;2.88;;;5.50;99.90;;;;;;5099070;28;20446;-85
2022/11/27 10:20:43;;;;;;;9.95;3.15;;;5.50;99.90;;;;;;5074525;28;20044;-84
2022/11/27 10:23:41;;;;;;;11.38;2.90;;;5.50;99.90;;;;;;5083521;28;20042;-85
2022/11/27 10:26:14;;;;;;;10.85;3.47;;;5.50;99.90;;;;;;5084510;28;20043;-85
2022/11/27 10:28:41;;;;;;;9.07;2.80;;;5.40;99.90;;;;;;5102539;28;20115;-85
2022/11/27 10:31:23;;;;;;;7.53;3.03;;;5.40;99.90;;;;;;5136529;28;20119;-84
2022/11/27 10:33:54;;;;;;;8.00;3.00;;;5.40;99.90;;;;;;5097228;28;20044;-85
2022/11/27 10:36:28;;;;;;;6.22;2.58;;;5.40;99.90;;;;;;5115957;28;20118;-85
2022/11/27 10:38:57;;;;;;;8.00;3.03;;;5.40;99.90;;;;;;5093530;28;20043;-83
2022/11/27 10:41:29;;;;;;;9.25;2.90;;;5.40;99.90;;;;;;5073481;28;20408;-87
2022/11/27 10:44:01;;;;;;;7.80;2.88;;;5.40;99.90;;;;;;5089755;28;20083;-84
2022/11/27 10:46:32;;;;;;;10.52;3.80;;;5.30;99.90;;;;;;5093312;28;20039;-85
2022/11/27 10:48:59;;;;;;;8.45;3.00;;;5.30;99.90;;;;;;5093295;28;20059;-85
2022/11/27 10:51:44;;;;;;;9.93;3.20;;;5.30;99.90;;;;;;5068895;28;20524;-85
2022/11/27 10:54:23;;;;;;;8.30;3.05;;;5.20;99.90;;;;;;5083248;28;20400;-85
2022/11/27 10:57:16;;;;;;;9.98;3.22;;;5.20;99.90;;;;;;5114772;28;20036;-85
2022/11/27 10:59:52;;;;;;;8.68;2.95;;;5.30;99.90;;;;;;5090223;28;20063;-84
2022/11/27 11:02:28;;;;;;;9.48;3.50;;;5.20;99.90;;;;;;5100942;28;20070;-84
2022/11/27 11:04:54;;;;;;;;;;;5.30;99.90;;;;;;5074102;28;20032;-84
2022/11/27 11:07:27;;;;;;;8.23;3.35;;;5.30;99.90;;;;;;5092902;28;19927;-84
2022/11/27 11:09:55;;;;;;;12.27;3.53;;;5.20;99.90;;;;;;5075554;28;20036;-85
2022/11/27 11:12:23;;;;;;;9.82;3.20;;;5.20;99.90;;;;;;5095881;28;20117;-83
2022/11/27 11:14:52;;;;;;;9.65;3.38;;;5.20;99.90;;;;;;5092773;28;20032;-84
2022/11/27 11:17:25;;;;;;;7.93;2.83;;;5.20;99.90;;;;;;5108813;28;20120;-84
2022/11/27 11:19:52;;;;;;;7.82;3.08;;;5.70;99.90;;;;;;5090338;28;20043;-83
2022/11/27 11:22:20;;;;;;;7.22;3.00;;;5.20;99.90;;;;;;5092835;28;20093;-84
2022/11/27 11:24:51;;;;;;;9.48;3.22;;;5.30;99.90;;;;;;5091956;28;20036;-83
2022/11/27 11:27:23;;;;;;;9.18;3.20;;;5.20;99.90;;;;;;5084412;28;20048;-83
2022/11/27 11:30:01;;;;;;;6.97;3.42;;;5.50;99.90;;;;;;5092262;28;20404;-84
2022/11/27 11:32:39;;;;;;;11.77;3.42;;;5.30;99.90;;;;;;5092541;28;20082;-83
2022/11/27 11:35:35;;;;;;;8.57;3.83;;;5.30;99.90;;;;;;5072430;28;20043;-84
2022/11/27 11:38:03;;;;;;;;;;;5.30;99.90;;;;;;5089737;28;20033;-84
2022/11/27 11:40:33;;;;;;;10.50;2.95;;;5.40;99.90;;;;;;5072372;28;19994;-83
2022/11/27 11:43:04;;;;;;;9.52;3.75;;;5.40;99.90;;;;;;5091571;28;20040;-84
2022/11/27 11:45:32;;;;;;;8.50;3.30;;;5.60;99.90;;;;;;5108995;28;20085;-83
2022/11/27 11:48:23;;;;;;;8.25;3.38;;;5.40;99.90;;;;;;5092700;28;20040;-84
2022/11/27 11:51:07;;;;;;;7.35;3.33;;;5.40;99.90;;;;;;5109263;28;20036;-83
2022/11/27 11:53:40;;;;;;;8.10;3.40;;;5.40;99.90;;;;;;5083165;28;20043;-83
2022/11/27 11:56:19;;;;;;;7.47;3.30;;;5.50;99.90;;;;;;5108797;28;20131;-84
2022/11/27 11:58:57;;;;;;;10.35;3.65;;;5.50;99.90;;;;;;5092038;28;20044;-83
2022/11/27 12:02:21;;;;;;;8.43;3.72;;;5.40;99.90;;;;;;5092439;28;20451;-83
2022/11/27 12:04:51;;;;;;;10.00;3.42;;;5.50;99.90;;;;;;5048380;28;20527;-84
2022/11/27 12:07:26;;;;;;;8.23;3.58;;;5.40;99.90;;;;;;5108438;28;20591;-84
2022/11/27 12:10:11;;;;;;;11.38;3.60;;;5.50;99.90;;;;;;5092090;28;20536;-84
2022/11/27 12:12:53;;;;;;;8.38;3.75;;;5.50;99.90;;;;;;5092413;28;20051;-85
2022/11/27 12:15:29;;;;;;;9.95;3.70;;;5.50;99.90;;;;;;5091979;28;20040;-85
2022/11/27 12:18:17;;;;;;;10.70;3.70;;;5.50;99.90;;;;;;5092469;28;20488;-85
2022/11/27 12:21:14;;;;;;;14.18;3.55;;;5.50;99.90;;;;;;5142870;28;20113;-84
2022/11/27 12:23:40;;;;;;;8.18;3.38;;;5.50;99.90;;;;;;5100360;28;20047;-84
2022/11/27 12:26:13;;;;;;;7.50;3.42;;;5.50;99.90;;;;;;5095617;28;20048;-83
2022/11/27 12:29:01;;;;;;;9.75;3.33;;;5.50;99.90;;;;;;5112896;28;20411;-83
2022/11/27 12:32:06;;;;;;;10.68;4.10;;;5.50;99.90;;;;;;5113212;28;20047;-83
2022/11/27 12:34:52;;;;;;;8.52;3.53;;;5.50;99.90;;;;;;5092804;28;20519;-83
2022/11/27 12:37:34;;;;;;;9.13;3.50;;;5.60;99.90;;;;;;5102105;28;20039;-83
2022/11/27 12:40:10;;;;;;;6.65;3.53;;;5.60;99.90;;;;;;5084734;28;20040;-83
2022/11/27 12:43:04;;;;;;;;;;;5.60;99.90;;;;;;5085062;28;20495;-83
2022/11/27 12:45:48;;;;;;;10.50;3.95;;;5.60;99.90;;;;;;5095774;28;19923;-83
2022/11/27 12:48:35;;;;;;;9.07;3.47;;;5.60;99.90;;;;;;5095787;28;20046;-83
2022/11/27 12:51:10;;;;;;;10.50;3.33;;;5.60;99.90;;;;;;5095753;28;20032;-83
2022/11/27 12:53:49;;;;;;;7.93;3.20;;;5.60;99.90;;;;;;5095568;28;20496;-83
2022/11/27 12:56:27;;;;;;;8.27;3.53;;;5.60;99.90;;;;;;5095973;28;20134;-83
2022/11/27 12:59:01;;;;;;;8.55;3.28;;;5.60;99.90;;;;;;5095377;28;20048;-83
2022/11/27 13:01:33;;;;;;;9.32;3.47;;;5.60;99.90;;;;;;5100689;28;20035;-84
2022/11/27 13:04:23;;;;;;;7.10;3.65;;;5.70;99.90;;;;;;5107588;28;20042;-83
2022/11/27 13:07:11;;;;;;;9.07;3.58;;;5.70;99.90;;;;;;5104455;28;20515;-84
2022/11/27 13:10:08;;;;;;;9.52;3.28;;;5.70;99.90;;;;;;5106638;28;20043;-84
2022/11/27 13:12:42;;;;;;;12.00;4.65;;;5.70;99.90;;;;;;5095286;28;20492;-83
2022/11/27 13:15:23;;;;;;;9.15;3.80;;;5.70;99.90;;;;;;5106038;28;20036;-83
2022/11/27 13:18:05;;;;;;;9.07;4.57;;;5.70;99.90;;;;;;5112197;28;20075;-83
2022/11/27 13:20:38;;;;;;;10.93;3.83;;;5.70;99.90;;;;;;5095541;28;20079;-83